Aeroporto :
LOGIN :

Iscrizione | Disclaimer

   EN    FR    IT 

 










Sommario :    VFR   VFR Marginale   IFR   IFR Intensivo   IFR Molto Intensivo
Visibilità : 
Base nubi : 
>= 8 km
>= 3000ft
5 / 8 km
1000 / 3000 ft
1500m / 5 km
500 / 1000 ft
800 / 1500m
200 / 500 ft
< 800m
< 200 ft
Simboli :   Temporali  Nebbia  Neve Forte  Precipitazioni Forti  Vento > 20 kt
SIGMETs :   Varie  Temporali  Ghiacco  Turbolenza  Onda orograficha  Ceneri Vulcaniche







- Altitudine del aeroporto : 106 ft
- Codice IATA : NRN


EDLV - Weeze

ULTIMO METAR :
  • 220920Z 14009KT CAVOK 21/10 Q1009

METARs OBSOLETI :
  • 220850Z 14009KT CAVOK 20/09 Q1009
  • 220820Z 13009KT CAVOK 20/09 Q1009
  • 220750Z 14010KT CAVOK 18/09 Q1009
  • 220720Z 13008KT CAVOK 16/08 Q1009
  • 220650Z 13007KT CAVOK 16/07 Q1009

TAF TAF EDLV
Valido dal 22 a 06 ore il 23 a 06 ore UTC


220500Z 2206/2306 13008KT CAVOK
PROB40
TEMPO 2218/2222 19008KT SHRA BKN025CB
BECMG 2222/2224 24005KT
TEMPO 2300/2306 4000 RA BKN012
Nessun NOTAM noto per questo aeroporto.



MetMap, La meteo Aeronautica in un colpo d'occhio ! - Copyright ORBIFLY Dicembre 2007 - Disclaimer

ORBIFLY MET'MAP TEAM :

Programmazione e sviluppo : Alexandra Zaïnal
Concezione e sviluppo : Baudouin d'Aumeries
Co-Programmazione e sviluppo : Marc-Olivier Méhu
Supporto tecnico e logistico : Manuel Goepfert
Aiuto per la traduzione : Arnaldo La Scala

Contatto : metmap@orbifly.com




FONTI E CREDITI :

   NOAA